sensor_id;sensor_type;location;lat;lon;timestamp;pressure;altitude;pressure_sealevel;temperature;humidity
9235;BME280;4652;42.716;23.218;2024-02-26T00:00:05;94322.78;;;4.68;79.91
9235;BME280;4652;42.716;23.218;2024-02-26T00:02:38;94312.53;;;4.73;80.04
9235;BME280;4652;42.716;23.218;2024-02-26T00:05:06;94307.97;;;4.80;80.25
9235;BME280;4652;42.716;23.218;2024-02-26T00:07:32;94310.59;;;4.85;80.77
9235;BME280;4652;42.716;23.218;2024-02-26T00:09:59;94300.31;;;4.90;80.35
9235;BME280;4652;42.716;23.218;2024-02-26T00:12:25;94299.25;;;4.86;81.17
9235;BME280;4652;42.716;23.218;2024-02-26T00:14:52;94295.91;;;4.86;81.21
9235;BME280;4652;42.716;23.218;2024-02-26T00:17:19;94298.41;;;4.76;82.68
9235;BME280;4652;42.716;23.218;2024-02-26T00:19:46;94302.84;;;4.85;80.58
9235;BME280;4652;42.716;23.218;2024-02-26T00:22:12;94296.41;;;4.83;79.82
9235;BME280;4652;42.716;23.218;2024-02-26T00:24:40;94302.13;;;4.90;78.58
9235;BME280;4652;42.716;23.218;2024-02-26T00:27:07;94295.41;;;4.89;80.15
9235;BME280;4652;42.716;23.218;2024-02-26T00:29:33;94301.34;;;4.89;80.24
9235;BME280;4652;42.716;23.218;2024-02-26T00:31:59;94296.19;;;4.89;79.65
9235;BME280;4652;42.716;23.218;2024-02-26T00:34:26;94294.94;;;4.92;79.09
9235;BME280;4652;42.716;23.218;2024-02-26T00:36:52;94284.78;;;4.80;78.98
9235;BME280;4652;42.716;23.218;2024-02-26T00:39:18;94284.00;;;4.80;80.18
9235;BME280;4652;42.716;23.218;2024-02-26T00:41:44;94279.72;;;4.90;78.78
9235;BME280;4652;42.716;23.218;2024-02-26T00:44:11;94284.28;;;4.78;79.85
9235;BME280;4652;42.716;23.218;2024-02-26T00:46:37;94284.22;;;4.73;80.54
9235;BME280;4652;42.716;23.218;2024-02-26T00:49:03;94283.44;;;4.73;78.94
9235;BME280;4652;42.716;23.218;2024-02-26T00:51:30;94270.72;;;4.93;79.97
9235;BME280;4652;42.716;23.218;2024-02-26T00:53:56;94270.00;;;4.98;80.36
9235;BME280;4652;42.716;23.218;2024-02-26T00:56:23;94270.00;;;5.03;80.91
9235;BME280;4652;42.716;23.218;2024-02-26T00:58:50;94269.59;;;5.16;79.40
9235;BME280;4652;42.716;23.218;2024-02-26T01:01:16;94276.84;;;5.24;80.88
9235;BME280;4652;42.716;23.218;2024-02-26T01:03:43;94282.03;;;5.29;81.77
9235;BME280;4652;42.716;23.218;2024-02-26T01:06:09;94274.56;;;5.28;81.98
9235;BME280;4652;42.716;23.218;2024-02-26T01:08:35;94271.97;;;5.28;82.01
9235;BME280;4652;42.716;23.218;2024-02-26T01:11:03;94270.44;;;5.27;81.32
9235;BME280;4652;42.716;23.218;2024-02-26T01:13:29;94260.41;;;5.30;82.35
9235;BME280;4652;42.716;23.218;2024-02-26T01:15:55;94264.03;;;5.34;82.33
9235;BME280;4652;42.716;23.218;2024-02-26T01:18:22;94253.50;;;5.41;81.90
9235;BME280;4652;42.716;23.218;2024-02-26T01:20:49;94256.56;;;5.38;81.43
9235;BME280;4652;42.716;23.218;2024-02-26T01:23:15;94254.84;;;5.54;80.92
9235;BME280;4652;42.716;23.218;2024-02-26T01:25:42;94249.22;;;5.62;81.35
9235;BME280;4652;42.716;23.218;2024-02-26T01:28:09;94252.75;;;5.51;82.03
9235;BME280;4652;42.716;23.218;2024-02-26T01:30:35;94248.41;;;5.56;80.53
9235;BME280;4652;42.716;23.218;2024-02-26T01:33:01;94253.31;;;5.58;81.74
9235;BME280;4652;42.716;23.218;2024-02-26T01:35:27;94251.22;;;5.55;81.98
9235;BME280;4652;42.716;23.218;2024-02-26T01:37:53;94257.88;;;5.46;82.12
9235;BME280;4652;42.716;23.218;2024-02-26T01:40:19;94256.41;;;5.60;82.02
9235;BME280;4652;42.716;23.218;2024-02-26T01:42:46;94248.25;;;5.78;80.72
9235;BME280;4652;42.716;23.218;2024-02-26T01:45:16;94248.44;;;5.67;81.00
9235;BME280;4652;42.716;23.218;2024-02-26T01:47:51;94251.06;;;5.77;80.99
9235;BME280;4652;42.716;23.218;2024-02-26T01:50:19;94254.94;;;5.84;80.26
9235;BME280;4652;42.716;23.218;2024-02-26T01:52:46;94251.06;;;5.72;81.88
9235;BME280;4652;42.716;23.218;2024-02-26T01:55:13;94254.66;;;5.71;82.32
9235;BME280;4652;42.716;23.218;2024-02-26T01:57:42;94248.00;;;5.85;81.11
9235;BME280;4652;42.716;23.218;2024-02-26T02:00:10;94241.59;;;5.93;80.69
9235;BME280;4652;42.716;23.218;2024-02-26T02:03:51;94247.25;;;5.90;80.27
9235;BME280;4652;42.716;23.218;2024-02-26T02:06:17;94245.16;;;5.87;81.53
9235;BME280;4652;42.716;23.218;2024-02-26T02:08:43;94243.88;;;5.89;81.49
9235;BME280;4652;42.716;23.218;2024-02-26T02:11:09;94235.44;;;5.99;80.97
9235;BME280;4652;42.716;23.218;2024-02-26T02:13:37;94236.38;;;5.82;81.36
9235;BME280;4652;42.716;23.218;2024-02-26T02:16:04;94241.53;;;5.88;82.50
9235;BME280;4652;42.716;23.218;2024-02-26T02:18:30;94240.78;;;5.82;83.45
9235;BME280;4652;42.716;23.218;2024-02-26T02:21:00;94240.78;;;5.87;82.54
9235;BME280;4652;42.716;23.218;2024-02-26T02:23:26;94238.00;;;5.94;81.33
9235;BME280;4652;42.716;23.218;2024-02-26T02:25:53;94239.31;;;6.01;81.38
9235;BME280;4652;42.716;23.218;2024-02-26T02:28:21;94244.44;;;5.96;81.01
9235;BME280;4652;42.716;23.218;2024-02-26T02:30:48;94240.81;;;5.92;81.64
9235;BME280;4652;42.716;23.218;2024-02-26T02:33:15;94237.75;;;5.95;81.30
9235;BME280;4652;42.716;23.218;2024-02-26T02:35:42;94239.81;;;5.98;81.53
9235;BME280;4652;42.716;23.218;2024-02-26T02:38:08;94229.78;;;6.02;81.04
9235;BME280;4652;42.716;23.218;2024-02-26T02:40:34;94229.00;;;6.12;81.21
9235;BME280;4652;42.716;23.218;2024-02-26T02:43:00;94225.91;;;6.20;81.16
9235;BME280;4652;42.716;23.218;2024-02-26T02:45:28;94239.88;;;6.29;80.69
9235;BME280;4652;42.716;23.218;2024-02-26T02:47:54;94238.59;;;6.31;80.64
9235;BME280;4652;42.716;23.218;2024-02-26T02:50:21;94248.63;;;6.18;81.55
9235;BME280;4652;42.716;23.218;2024-02-26T02:52:47;94247.31;;;6.10;81.73
9235;BME280;4652;42.716;23.218;2024-02-26T02:55:14;94251.75;;;6.25;81.53
9235;BME280;4652;42.716;23.218;2024-02-26T02:57:40;94251.50;;;6.31;80.67
9235;BME280;4652;42.716;23.218;2024-02-26T03:00:25;94249.44;;;6.23;82.21
9235;BME280;4652;42.716;23.218;2024-02-26T03:02:52;94250.97;;;6.35;82.06
9235;BME280;4652;42.716;23.218;2024-02-26T03:05:19;94249.16;;;6.35;81.75
9235;BME280;4652;42.716;23.218;2024-02-26T03:07:45;94242.47;;;6.44;81.73
9235;BME280;4652;42.716;23.218;2024-02-26T03:10:11;94243.50;;;6.38;82.36
9235;BME280;4652;42.716;23.218;2024-02-26T03:12:38;94240.69;;;6.50;81.41
9235;BME280;4652;42.716;23.218;2024-02-26T03:15:04;94256.16;;;6.55;81.82
9235;BME280;4652;42.716;23.218;2024-02-26T03:17:30;94248.41;;;6.45;81.50
9235;BME280;4652;42.716;23.218;2024-02-26T03:19:57;94246.84;;;6.49;81.96
9235;BME280;4652;42.716;23.218;2024-02-26T03:22:23;94245.31;;;6.38;82.43
9235;BME280;4652;42.716;23.218;2024-02-26T03:24:50;94245.31;;;6.43;82.27
9235;BME280;4652;42.716;23.218;2024-02-26T03:27:17;94240.69;;;6.50;81.56
9235;BME280;4652;42.716;23.218;2024-02-26T03:29:43;94233.69;;;6.55;81.75
9235;BME280;4652;42.716;23.218;2024-02-26T03:32:09;94232.66;;;6.51;82.16
9235;BME280;4652;42.716;23.218;2024-02-26T03:34:36;94233.44;;;6.47;82.38
9235;BME280;4652;42.716;23.218;2024-02-26T03:37:05;94229.03;;;6.42;82.16
9235;BME280;4652;42.716;23.218;2024-02-26T03:39:32;94226.97;;;6.54;81.17
9235;BME280;4652;42.716;23.218;2024-02-26T03:41:58;94221.06;;;6.54;81.30
9235;BME280;4652;42.716;23.218;2024-02-26T03:44:25;94228.78;;;6.54;81.37
9235;BME280;4652;42.716;23.218;2024-02-26T03:46:51;94232.66;;;6.62;80.94
9235;BME280;4652;42.716;23.218;2024-02-26T03:49:17;94225.44;;;6.59;80.43
9235;BME280;4652;42.716;23.218;2024-02-26T03:51:44;94223.63;;;6.64;81.24
9235;BME280;4652;42.716;23.218;2024-02-26T03:54:10;94222.59;;;6.65;80.87
9235;BME280;4652;42.716;23.218;2024-02-26T03:56:36;94219.25;;;6.70;81.40
9235;BME280;4652;42.716;23.218;2024-02-26T03:59:02;94216.38;;;6.71;80.64
9235;BME280;4652;42.716;23.218;2024-02-26T04:01:28;94213.56;;;6.63;80.64
9235;BME280;4652;42.716;23.218;2024-02-26T04:03:54;94211.78;;;6.43;81.11
9235;BME280;4652;42.716;23.218;2024-02-26T04:06:21;94207.13;;;6.40;81.47
9235;BME280;4652;42.716;23.218;2024-02-26T04:08:48;94204.00;;;6.38;80.24
9235;BME280;4652;42.716;23.218;2024-02-26T04:11:14;94213.81;;;6.36;80.55
9235;BME280;4652;42.716;23.218;2024-02-26T04:13:44;94211.50;;;6.34;80.23
9235;BME280;4652;42.716;23.218;2024-02-26T04:16:17;94213.28;;;6.28;80.05
9235;BME280;4652;42.716;23.218;2024-02-26T04:18:43;94206.34;;;6.44;80.20
9235;BME280;4652;42.716;23.218;2024-02-26T04:21:09;94200.16;;;6.40;79.85
9235;BME280;4652;42.716;23.218;2024-02-26T04:23:35;94201.44;;;6.43;79.81
9235;BME280;4652;42.716;23.218;2024-02-26T04:26:02;94204.50;;;6.29;80.95
9235;BME280;4652;42.716;23.218;2024-02-26T04:28:28;94201.41;;;6.22;81.05
9235;BME280;4652;42.716;23.218;2024-02-26T04:30:55;94205.28;;;6.25;81.33
9235;BME280;4652;42.716;23.218;2024-02-26T04:33:22;94205.03;;;6.21;81.11
9235;BME280;4652;42.716;23.218;2024-02-26T04:35:47;94210.69;;;6.13;80.95
9235;BME280;4652;42.716;23.218;2024-02-26T04:38:13;94210.19;;;6.26;80.27
9235;BME280;4652;42.716;23.218;2024-02-26T04:40:39;94220.53;;;6.37;80.18
9235;BME280;4652;42.716;23.218;2024-02-26T04:43:06;94219.50;;;6.43;79.41
9235;BME280;4652;42.716;23.218;2024-02-26T04:45:32;94218.19;;;6.45;79.99
9235;BME280;4652;42.716;23.218;2024-02-26T04:47:58;94219.50;;;6.53;79.97
9235;BME280;4652;42.716;23.218;2024-02-26T04:50:24;94220.78;;;6.40;80.57
9235;BME280;4652;42.716;23.218;2024-02-26T04:52:49;94221.31;;;6.37;80.51
9235;BME280;4652;42.716;23.218;2024-02-26T04:55:16;94222.09;;;6.53;79.95
9235;BME280;4652;42.716;23.218;2024-02-26T04:57:42;94222.34;;;6.57;80.17
9235;BME280;4652;42.716;23.218;2024-02-26T05:00:09;94230.09;;;6.46;80.60
9235;BME280;4652;42.716;23.218;2024-02-26T05:02:35;94235.75;;;6.48;79.46
9235;BME280;4652;42.716;23.218;2024-02-26T05:05:05;94233.69;;;6.35;79.43
9235;BME280;4652;42.716;23.218;2024-02-26T05:07:32;94232.41;;;6.38;80.71
9235;BME280;4652;42.716;23.218;2024-02-26T05:09:58;94237.03;;;6.46;81.03
9235;BME280;4652;42.716;23.218;2024-02-26T05:12:25;94237.06;;;6.41;80.24
9235;BME280;4652;42.716;23.218;2024-02-26T05:14:51;94239.38;;;6.42;78.01
9235;BME280;4652;42.716;23.218;2024-02-26T05:17:17;94245.81;;;6.45;78.49
9235;BME280;4652;42.716;23.218;2024-02-26T05:19:44;94251.00;;;6.40;78.83
9235;BME280;4652;42.716;23.218;2024-02-26T05:22:10;94251.53;;;6.57;79.48
9235;BME280;4652;42.716;23.218;2024-02-26T05:24:38;94251.25;;;6.59;79.15
9235;BME280;4652;42.716;23.218;2024-02-26T05:27:04;94269.34;;;6.64;79.49
9235;BME280;4652;42.716;23.218;2024-02-26T05:29:30;94268.28;;;6.54;80.63
9235;BME280;4652;42.716;23.218;2024-02-26T05:31:57;94273.72;;;6.53;79.40
9235;BME280;4652;42.716;23.218;2024-02-26T05:34:23;94274.75;;;6.52;80.03
9235;BME280;4652;42.716;23.218;2024-02-26T05:36:50;94270.09;;;6.49;81.14
9235;BME280;4652;42.716;23.218;2024-02-26T05:39:16;94270.63;;;6.51;80.25
9235;BME280;4652;42.716;23.218;2024-02-26T05:41:43;94279.66;;;6.59;80.85
9235;BME280;4652;42.716;23.218;2024-02-26T05:44:11;94277.09;;;6.64;81.07
9235;BME280;4652;42.716;23.218;2024-02-26T05:46:37;94275.78;;;6.66;81.06
9235;BME280;4652;42.716;23.218;2024-02-26T05:49:03;94273.19;;;6.61;81.45
9235;BME280;4652;42.716;23.218;2024-02-26T05:51:29;94276.31;;;6.63;81.37
9235;BME280;4652;42.716;23.218;2024-02-26T05:53:55;94278.38;;;6.76;81.52
9235;BME280;4652;42.716;23.218;2024-02-26T05:56:22;94287.41;;;6.84;81.03
9235;BME280;4652;42.716;23.218;2024-02-26T05:58:48;94272.16;;;6.88;80.40
9235;BME280;4652;42.716;23.218;2024-02-26T06:01:16;94269.59;;;6.88;80.45
9235;BME280;4652;42.716;23.218;2024-02-26T06:03:43;94282.22;;;6.94;79.92
9235;BME280;4652;42.716;23.218;2024-02-26T06:06:10;94283.53;;;7.02;80.11
9235;BME280;4652;42.716;23.218;2024-02-26T06:08:36;94282.47;;;7.13;80.67
9235;BME280;4652;42.716;23.218;2024-02-26T06:11:09;94285.84;;;7.04;80.89
9235;BME280;4652;42.716;23.218;2024-02-26T06:13:35;94289.47;;;7.03;81.30
9235;BME280;4652;42.716;23.218;2024-02-26T06:16:01;94288.44;;;6.98;81.32
9235;BME280;4652;42.716;23.218;2024-02-26T06:18:27;94285.59;;;7.00;80.89
9235;BME280;4652;42.716;23.218;2024-02-26T06:20:53;94284.31;;;7.08;80.76
9235;BME280;4652;42.716;23.218;2024-02-26T06:23:18;94288.19;;;7.15;80.66
9235;BME280;4652;42.716;23.218;2024-02-26T06:25:44;94280.94;;;7.22;80.41
9235;BME280;4652;42.716;23.218;2024-02-26T06:28:09;94291.78;;;7.35;79.77
9235;BME280;4652;42.716;23.218;2024-02-26T06:30:35;94283.50;;;7.33;79.86
9235;BME280;4652;42.716;23.218;2024-02-26T06:33:01;94289.19;;;7.40;79.85
9235;BME280;4652;42.716;23.218;2024-02-26T06:35:27;94287.34;;;7.45;80.42
9235;BME280;4652;42.716;23.218;2024-02-26T06:37:52;94294.81;;;7.57;79.99
9235;BME280;4652;42.716;23.218;2024-02-26T06:40:21;94289.63;;;7.67;79.56
9235;BME280;4652;42.716;23.218;2024-02-26T06:42:47;94297.84;;;7.80;78.92
9235;BME280;4652;42.716;23.218;2024-02-26T06:45:13;94287.22;;;7.86;79.42
9235;BME280;4652;42.716;23.218;2024-02-26T06:47:38;94299.63;;;7.94;79.19
9235;BME280;4652;42.716;23.218;2024-02-26T06:50:04;94300.94;;;7.92;78.24
9235;BME280;4652;42.716;23.218;2024-02-26T06:52:30;94293.34;;;8.11;78.47
9235;BME280;4652;42.716;23.218;2024-02-26T06:54:55;94301.28;;;8.25;77.40
9235;BME280;4652;42.716;23.218;2024-02-26T06:57:21;94306.44;;;8.30;77.75
9235;BME280;4652;42.716;23.218;2024-02-26T06:59:47;94303.56;;;8.41;76.72
9235;BME280;4652;42.716;23.218;2024-02-26T07:02:13;94308.75;;;8.41;76.02
9235;BME280;4652;42.716;23.218;2024-02-26T07:04:39;94301.25;;;8.40;76.31
9235;BME280;4652;42.716;23.218;2024-02-26T07:07:07;94308.00;;;8.26;76.77
9235;BME280;4652;42.716;23.218;2024-02-26T07:09:33;94310.13;;;8.18;76.86
9235;BME280;4652;42.716;23.218;2024-02-26T07:11:58;94304.66;;;8.20;76.98
9235;BME280;4652;42.716;23.218;2024-02-26T07:14:24;94310.88;;;8.24;77.33
9235;BME280;4652;42.716;23.218;2024-02-26T07:16:52;94307.94;;;8.36;75.68
9235;BME280;4652;42.716;23.218;2024-02-26T07:19:18;94314.31;;;8.09;76.76
9235;BME280;4652;42.716;23.218;2024-02-26T07:21:43;94318.88;;;8.28;75.50
9235;BME280;4652;42.716;23.218;2024-02-26T07:24:09;94317.06;;;8.28;76.52
9235;BME280;4652;42.716;23.218;2024-02-26T07:26:34;94315.59;;;8.12;76.67
9235;BME280;4652;42.716;23.218;2024-02-26T07:29:00;94315.56;;;8.17;76.24
9235;BME280;4652;42.716;23.218;2024-02-26T07:31:26;94311.38;;;8.26;76.27
9235;BME280;4652;42.716;23.218;2024-02-26T07:33:52;94322.88;;;8.05;76.80
9235;BME280;4652;42.716;23.218;2024-02-26T07:36:17;94320.06;;;7.96;77.56
9235;BME280;4652;42.716;23.218;2024-02-26T07:38:43;94312.22;;;8.11;78.23
9235;BME280;4652;42.716;23.218;2024-02-26T07:41:09;94319.88;;;8.37;76.28
9235;BME280;4652;42.716;23.218;2024-02-26T07:43:34;94316.91;;;8.59;75.22
9235;BME280;4652;42.716;23.218;2024-02-26T07:46:00;94324.44;;;8.55;74.95
9235;BME280;4652;42.716;23.218;2024-02-26T07:48:26;94329.31;;;8.62;75.67
9235;BME280;4652;42.716;23.218;2024-02-26T07:50:51;94322.91;;;8.54;76.31
9235;BME280;4652;42.716;23.218;2024-02-26T07:53:17;94323.72;;;8.50;76.35
9235;BME280;4652;42.716;23.218;2024-02-26T07:55:42;94312.19;;;8.71;75.76
9235;BME280;4652;42.716;23.218;2024-02-26T07:58:08;94311.47;;;9.00;74.82
9235;BME280;4652;42.716;23.218;2024-02-26T08:03:49;94313.78;;;9.01;74.07
9235;BME280;4652;42.716;23.218;2024-02-26T08:06:16;94326.66;;;9.11;73.89
9235;BME280;4652;42.716;23.218;2024-02-26T08:08:42;94310.59;;;9.39;72.37
9235;BME280;4652;42.716;23.218;2024-02-26T08:11:09;94311.59;;;9.43;71.45
9235;BME280;4652;42.716;23.218;2024-02-26T08:13:34;94306.63;;;9.46;72.44
9235;BME280;4652;42.716;23.218;2024-02-26T08:16:01;94307.09;;;9.53;71.70
9235;BME280;4652;42.716;23.218;2024-02-26T08:18:26;94306.72;;;9.65;71.83
9235;BME280;4652;42.716;23.218;2024-02-26T08:20:52;94306.84;;;9.79;70.83
9235;BME280;4652;42.716;23.218;2024-02-26T08:23:18;94302.56;;;9.88;71.23
9235;BME280;4652;42.716;23.218;2024-02-26T08:25:43;94318.41;;;10.11;69.62
9235;BME280;4652;42.716;23.218;2024-02-26T08:28:09;94309.16;;;10.23;69.59
9235;BME280;4652;42.716;23.218;2024-02-26T08:30:38;94309.06;;;10.52;69.25
9235;BME280;4652;42.716;23.218;2024-02-26T08:33:05;94308.00;;;9.68;70.00
9235;BME280;4652;42.716;23.218;2024-02-26T08:35:31;94299.56;;;10.24;69.17
9235;BME280;4652;42.716;23.218;2024-02-26T08:37:57;94306.00;;;10.50;68.95
9235;BME280;4652;42.716;23.218;2024-02-26T08:40:23;94308.09;;;10.67;68.20
9235;BME280;4652;42.716;23.218;2024-02-26T08:42:49;94300.44;;;10.76;67.43
9235;BME280;4652;42.716;23.218;2024-02-26T08:45:15;94306.28;;;11.01;68.04
9235;BME280;4652;42.716;23.218;2024-02-26T08:47:44;94314.16;;;11.14;67.04
9235;BME280;4652;42.716;23.218;2024-02-26T08:50:11;94316.63;;;11.38;65.98
9235;BME280;4652;42.716;23.218;2024-02-26T08:52:38;94310.44;;;11.34;66.02
9235;BME280;4652;42.716;23.218;2024-02-26T08:55:05;94304.91;;;11.68;64.53
9235;BME280;4652;42.716;23.218;2024-02-26T08:57:32;94308.56;;;11.67;64.61
9235;BME280;4652;42.716;23.218;2024-02-26T09:00:01;94313.22;;;11.84;64.03
9235;BME280;4652;42.716;23.218;2024-02-26T09:02:27;94302.03;;;11.98;62.42
9235;BME280;4652;42.716;23.218;2024-02-26T09:04:54;94304.50;;;11.61;63.43
9235;BME280;4652;42.716;23.218;2024-02-26T09:07:21;94308.19;;;11.74;63.25
9235;BME280;4652;42.716;23.218;2024-02-26T09:09:48;94301.72;;;11.72;63.56
9235;BME280;4652;42.716;23.218;2024-02-26T09:12:14;94295.94;;;11.61;63.80
9235;BME280;4652;42.716;23.218;2024-02-26T09:14:41;94303.97;;;12.06;62.39
9235;BME280;4652;42.716;23.218;2024-02-26T09:17:07;94294.31;;;12.06;61.84
9235;BME280;4652;42.716;23.218;2024-02-26T09:19:33;94306.09;;;12.04;62.04
9235;BME280;4652;42.716;23.218;2024-02-26T09:21:59;94300.31;;;11.93;62.62
9235;BME280;4652;42.716;23.218;2024-02-26T09:24:26;94304.56;;;11.42;64.20
9235;BME280;4652;42.716;23.218;2024-02-26T09:26:53;94299.88;;;11.72;62.62
9235;BME280;4652;42.716;23.218;2024-02-26T09:29:19;94295.50;;;11.86;62.45
9235;BME280;4652;42.716;23.218;2024-02-26T09:31:45;94300.31;;;12.07;61.29
9235;BME280;4652;42.716;23.218;2024-02-26T09:34:13;94293.03;;;12.31;61.23
9235;BME280;4652;42.716;23.218;2024-02-26T09:36:40;94287.28;;;12.57;60.18
9235;BME280;4652;42.716;23.218;2024-02-26T09:39:06;94287.22;;;12.48;59.63
9235;BME280;4652;42.716;23.218;2024-02-26T09:41:37;94289.56;;;12.22;60.24
9235;BME280;4652;42.716;23.218;2024-02-26T09:44:04;94286.31;;;12.53;60.63
9235;BME280;4652;42.716;23.218;2024-02-26T09:46:31;94277.22;;;12.64;58.84
9235;BME280;4652;42.716;23.218;2024-02-26T09:48:58;94280.50;;;12.56;60.12
9235;BME280;4652;42.716;23.218;2024-02-26T09:51:24;94283.03;;;12.83;59.39
9235;BME280;4652;42.716;23.218;2024-02-26T09:53:52;94278.50;;;12.89;58.38
9235;BME280;4652;42.716;23.218;2024-02-26T09:56:19;94277.75;;;13.20;58.81
9235;BME280;4652;42.716;23.218;2024-02-26T09:58:48;94279.66;;;13.28;58.10
9235;BME280;4652;42.716;23.218;2024-02-26T10:01:19;94267.78;;;13.53;57.09
9235;BME280;4652;42.716;23.218;2024-02-26T10:03:51;94270.00;;;13.68;57.63
9235;BME280;4652;42.716;23.218;2024-02-26T10:06:21;94264.22;;;13.89;57.02
9235;BME280;4652;42.716;23.218;2024-02-26T10:08:48;94260.25;;;13.91;57.10
9235;BME280;4652;42.716;23.218;2024-02-26T10:11:14;94261.84;;;14.10;56.26
9235;BME280;4652;42.716;23.218;2024-02-26T10:13:41;94258.00;;;14.07;55.18
9235;BME280;4652;42.716;23.218;2024-02-26T10:16:07;94256.16;;;14.16;56.38
9235;BME280;4652;42.716;23.218;2024-02-26T10:18:52;94251.41;;;14.18;54.31
9235;BME280;4652;42.716;23.218;2024-02-26T10:21:22;94250.84;;;13.82;55.67
9235;BME280;4652;42.716;23.218;2024-02-26T10:23:49;94256.13;;;14.08;56.65
9235;BME280;4652;42.716;23.218;2024-02-26T10:26:16;94246.78;;;14.24;56.75
9235;BME280;4652;42.716;23.218;2024-02-26T10:28:43;94238.31;;;14.10;55.60
9235;BME280;4652;42.716;23.218;2024-02-26T10:31:10;94245.25;;;14.40;55.05
9235;BME280;4652;42.716;23.218;2024-02-26T10:33:37;94230.69;;;14.48;55.05
9235;BME280;4652;42.716;23.218;2024-02-26T10:36:07;94234.66;;;14.19;51.66
9235;BME280;4652;42.716;23.218;2024-02-26T10:38:35;94229.31;;;13.67;51.35
9235;BME280;4652;42.716;23.218;2024-02-26T10:41:05;94234.47;;;13.50;52.02
9235;BME280;4652;42.716;23.218;2024-02-26T10:43:32;94233.13;;;13.61;52.33
9235;BME280;4652;42.716;23.218;2024-02-26T10:45:58;94229.19;;;13.81;51.44
9235;BME280;4652;42.716;23.218;2024-02-26T10:48:24;94228.34;;;13.54;51.57
9235;BME280;4652;42.716;23.218;2024-02-26T10:50:51;94223.09;;;13.46;50.82
9235;BME280;4652;42.716;23.218;2024-02-26T10:53:21;94221.88;;;13.52;50.73
9235;BME280;4652;42.716;23.218;2024-02-26T10:55:58;94224.38;;;13.57;52.64
9235;BME280;4652;42.716;23.218;2024-02-26T10:58:27;94213.03;;;13.70;50.80
9235;BME280;4652;42.716;23.218;2024-02-26T11:00:56;94216.25;;;13.67;51.00
9235;BME280;4652;42.716;23.218;2024-02-26T11:03:24;94209.59;;;13.44;50.45
9235;BME280;4652;42.716;23.218;2024-02-26T11:05:51;94203.56;;;13.43;51.62
9235;BME280;4652;42.716;23.218;2024-02-26T11:08:18;94201.00;;;13.52;51.59
9235;BME280;4652;42.716;23.218;2024-02-26T11:10:48;94198.75;;;13.68;50.85
9235;BME280;4652;42.716;23.218;2024-02-26T11:13:18;94200.44;;;13.72;52.56
9235;BME280;4652;42.716;23.218;2024-02-26T11:15:46;94200.94;;;13.35;52.15
9235;BME280;4652;42.716;23.218;2024-02-26T11:18:18;94203.50;;;13.57;52.34
9235;BME280;4652;42.716;23.218;2024-02-26T11:20:46;94198.91;;;13.71;50.95
9235;BME280;4652;42.716;23.218;2024-02-26T11:23:13;94202.59;;;13.70;50.52
9235;BME280;4652;42.716;23.218;2024-02-26T11:25:41;94203.41;;;13.80;50.42
9235;BME280;4652;42.716;23.218;2024-02-26T11:28:14;94216.28;;;13.76;49.85
9235;BME280;4652;42.716;23.218;2024-02-26T11:30:45;94209.91;;;13.51;50.99
9235;BME280;4652;42.716;23.218;2024-02-26T11:33:14;94208.31;;;13.33;50.25
9235;BME280;4652;42.716;23.218;2024-02-26T11:35:41;94203.50;;;13.26;51.20
9235;BME280;4652;42.716;23.218;2024-02-26T11:38:07;94201.22;;;13.33;51.88
9235;BME280;4652;42.716;23.218;2024-02-26T11:40:38;94190.41;;;13.17;51.54
9235;BME280;4652;42.716;23.218;2024-02-26T11:43:07;94188.88;;;13.16;52.09
9235;BME280;4652;42.716;23.218;2024-02-26T11:48:12;94191.63;;;13.51;52.45
9235;BME280;4652;42.716;23.218;2024-02-26T11:50:52;94179.34;;;13.51;50.24
9235;BME280;4652;42.716;23.218;2024-02-26T11:53:30;94187.47;;;13.50;50.79
9235;BME280;4652;42.716;23.218;2024-02-26T11:59:03;94186.25;;;13.56;50.09
9235;BME280;4652;42.716;23.218;2024-02-26T12:04:11;94179.41;;;13.77;50.59
9235;BME280;4652;42.716;23.218;2024-02-26T12:07:00;94186.00;;;13.75;49.09
9235;BME280;4652;42.716;23.218;2024-02-26T12:09:42;94180.78;;;13.75;49.29
9235;BME280;4652;42.716;23.218;2024-02-26T12:12:13;94178.94;;;13.67;49.73
9235;BME280;4652;42.716;23.218;2024-02-26T12:14:53;94187.97;;;13.61;49.38
9235;BME280;4652;42.716;23.218;2024-02-26T12:17:23;94182.00;;;13.60;48.97
9235;BME280;4652;42.716;23.218;2024-02-26T12:19:50;94186.63;;;13.72;49.63
9235;BME280;4652;42.716;23.218;2024-02-26T12:22:19;94180.66;;;13.89;49.62
9235;BME280;4652;42.716;23.218;2024-02-26T12:24:45;94196.19;;;13.94;47.83
9235;BME280;4652;42.716;23.218;2024-02-26T12:27:14;94190.50;;;13.92;48.44
9235;BME280;4652;42.716;23.218;2024-02-26T12:29:41;94191.75;;;14.20;48.56
9235;BME280;4652;42.716;23.218;2024-02-26T12:32:07;94199.94;;;14.28;47.13
9235;BME280;4652;42.716;23.218;2024-02-26T12:34:34;94194.06;;;14.31;46.97
9235;BME280;4652;42.716;23.218;2024-02-26T12:37:00;94197.16;;;14.15;46.95
9235;BME280;4652;42.716;23.218;2024-02-26T12:39:27;94195.28;;;14.07;45.58
9235;BME280;4652;42.716;23.218;2024-02-26T12:41:55;94192.03;;;14.01;47.12
9235;BME280;4652;42.716;23.218;2024-02-26T12:44:25;94196.38;;;14.23;47.25
9235;BME280;4652;42.716;23.218;2024-02-26T12:47:00;94191.88;;;13.98;46.86
9235;BME280;4652;42.716;23.218;2024-02-26T12:49:28;94194.75;;;13.79;46.23
9235;BME280;4652;42.716;23.218;2024-02-26T12:51:54;94190.03;;;13.90;47.49
9235;BME280;4652;42.716;23.218;2024-02-26T12:54:28;94194.50;;;14.07;46.77
9235;BME280;4652;42.716;23.218;2024-02-26T12:56:54;94190.66;;;14.04;46.56
9235;BME280;4652;42.716;23.218;2024-02-26T12:59:21;94185.91;;;14.06;45.56
9235;BME280;4652;42.716;23.218;2024-02-26T13:01:47;94182.50;;;13.88;45.84
9235;BME280;4652;42.716;23.218;2024-02-26T13:04:12;94187.25;;;13.95;47.23
9235;BME280;4652;42.716;23.218;2024-02-26T13:06:38;94182.53;;;14.06;46.15
9235;BME280;4652;42.716;23.218;2024-02-26T13:09:05;94189.56;;;13.88;46.03
9235;BME280;4652;42.716;23.218;2024-02-26T13:11:31;94184.81;;;13.90;46.89
9235;BME280;4652;42.716;23.218;2024-02-26T13:13:58;94186.34;;;13.91;45.63
9235;BME280;4652;42.716;23.218;2024-02-26T13:16:25;94182.50;;;13.88;47.35
9235;BME280;4652;42.716;23.218;2024-02-26T13:18:51;94187.44;;;13.98;46.75
9235;BME280;4652;42.716;23.218;2024-02-26T13:21:18;94189.59;;;13.96;46.75
9235;BME280;4652;42.716;23.218;2024-02-26T13:23:48;94189.28;;;14.07;46.21
9235;BME280;4652;42.716;23.218;2024-02-26T13:26:16;94185.28;;;14.00;46.56
9235;BME280;4652;42.716;23.218;2024-02-26T13:28:42;94187.00;;;14.05;46.25